Terminal Aerodrome Forecast
Issued by NWS

Home | Current Version | Previous Version | Text Only | Print | Product List | Glossary On
Versions: 1 2 3 4 5 6 7 8 9 10 11 12 13 14 15 16 17 18 19 20 21 22 23 24
000
FTUS46 KSEW 222300
TAFHQM
TAF
KHQM 222320Z 2300/2324 20006KT P6SM SCT015 BKN035
     FM230300 VRB03KT P6SM SCT025 BKN070 OVC120
     FM230800 VRB03KT P6SM VCSH OVC025
     FM231200 09009KT 4SM RA BR OVC015
     FM232200 16006KT P6SM -RA SCT018 OVC035=

USA.gov is the U.S. government's official web portal to all federal, state and local government web resources and services.